Triple Star — 3EDA5 — position and weather

sailwx.info

Track history (hours):
 
Tides and Currents Weather Stations Pressure Air Temp Water Temp Dewpoint Dewpoint Depression Visibility Wind Speed Wind Dir Waves Ship Positions

Triple Star

Last reported at 2016-Feb-08 21:28 UTC. Time now 2016-Feb-09 07:44 UTC.
Position S 21°01' E 114°40'.

Length 190 m; draft 6.9 m.

Type: Cargo ship. MMSI: 371523000.

Date/timePositionNaut miles runAvg speedWind from/ knotsBaromVisibWave heightAir tempDewpointWater temp
2016-Feb-08 21:28S 21°01' E 114°40'2412.6
2016-Feb-08 19:32S 20°43' E 114°23'4611.2
2016-Feb-08 15:27S 19°58' E 114°19'1112.0
2016-Feb-08 14:34S 19°47' E 114°20'1211.9
2016-Feb-08 13:33S 19°35' E 114°22'5911.6
2016-Feb-08 08:29S 18°37' E 114°29'1312.1
2016-Feb-08 07:25S 18°24' E 114°30'8412.1
2016-Feb-08 00:31S 17°01' E 114°41'2512.3
2016-Feb-07 22:28S 16°36' E 114°44'1212.2
2016-Feb-07 21:27S 16°24' E 114°46'2812.3
2016-Feb-07 19:11S 15°56' E 114°49'4412.2
2016-Feb-07 15:33S 15°12' E 114°54'  
2016-Feb-02 12:33N 01°14' E 104°02'8 7.9
2016-Feb-02 11:34N 01°16' E 103°54'2 1.5
2016-Feb-02 10:31N 01°15' E 103°52'0 0.0
2016-Feb-02 09:31N 01°15' E 103°52'0 0.0
2016-Feb-02 08:31N 01°15' E 103°52'0 0.0
2016-Feb-02 07:31N 01°15' E 103°52'0 0.1
2016-Feb-02 06:31N 01°15' E 103°53'0 0.0
2016-Feb-02 05:29N 01°15' E 103°53'0 0.0
2016-Feb-02 04:31N 01°15' E 103°53'0 0.1
2016-Feb-02 03:31N 01°16' E 103°53'0 0.1
2016-Feb-02 02:31N 01°15' E 103°53'0 0.0
2016-Feb-02 01:31N 01°15' E 103°53'0 0.1
2016-Feb-02 00:31N 01°15' E 103°53'0 0.1
2016-Feb-01 23:30N 01°15' E 103°52'0 0.0
2016-Feb-01 22:30N 01°15' E 103°52'0 0.1
2016-Feb-01 21:33N 01°15' E 103°53'0 0.0
2016-Feb-01 20:30N 01°15' E 103°53'0 0.0
2016-Feb-01 19:33N 01°15' E 103°53'0 0.0
2016-Feb-01 18:33N 01°15' E 103°53'0 0.0
2016-Feb-01 17:31N 01°15' E 103°53'0 0.0
2016-Feb-01 16:33N 01°15' E 103°53'0 0.0
2016-Feb-01 15:30N 01°15' E 103°53'0 0.0
2016-Feb-01 14:30N 01°15' E 103°53'0 0.0
2016-Feb-01 13:33N 01°15' E 103°53'0 0.0
2016-Feb-01 12:30N 01°15' E 103°53'0 0.0
2016-Feb-01 11:30N 01°15' E 103°53'0 0.0
2016-Feb-01 10:30N 01°15' E 103°53'0 0.1
2016-Feb-01 09:30N 01°15' E 103°52'0 0.1
2016-Feb-01 08:33N 01°15' E 103°53'0 0.1
2016-Feb-01 07:30N 01°15' E 103°52'0 0.0
2016-Feb-01 06:27N 01°15' E 103°52'0 0.1
2016-Feb-01 05:33N 01°15' E 103°53'0 0.0
2016-Feb-01 04:24N 01°15' E 103°53'0 0.0
2016-Feb-01 03:30N 01°15' E 103°53'0 0.0
2016-Feb-01 02:22N 01°15' E 103°53'0 0.0
2016-Feb-01 01:28N 01°15' E 103°53'0 0.0
2016-Feb-01 00:33N 01°15' E 103°53'0 0.0
2016-Jan-31 23:33N 01°15' E 103°53'0 0.0
2016-Jan-31 22:27N 01°15' E 103°53'0 0.0
2016-Jan-31 21:33N 01°15' E 103°53'0 0.0
2016-Jan-31 20:30N 01°15' E 103°53'0 0.0
2016-Jan-31 19:30N 01°15' E 103°53'0 0.0
2016-Jan-31 18:30N 01°15' E 103°53'0 0.0
2016-Jan-31 17:27N 01°15' E 103°53'0 0.0
2016-Jan-31 16:28N 01°15' E 103°53'0 0.0
2016-Jan-31 15:32N 01°15' E 103°53'0 0.1
2016-Jan-31 14:32N 01°16' E 103°52'0 0.1
2016-Jan-31 13:32N 01°16' E 103°53'0 0.0
2016-Jan-31 12:32N 01°15' E 103°53'0 0.2
2016-Jan-31 11:29N 01°16' E 103°53'0 0.0
2016-Jan-31 10:29N 01°16' E 103°53'0 0.1
2016-Jan-31 09:33N 01°16' E 103°53'0 0.1
2016-Jan-31 08:32N 01°16' E 103°53'0 0.2
2016-Jan-31 07:32N 01°16' E 103°53'0 0.2
2016-Jan-31 06:29N 01°16' E 103°52'2 2.6
2016-Jan-31 05:33N 01°13' E 103°53'9 8.7
2016-Jan-31 04:33N 01°17' E 103°45'2 2.1
2016-Jan-31 03:30N 01°18' E 103°43'0 0.0
2016-Jan-31 02:30N 01°18' E 103°43'0 0.0
2016-Jan-31 01:33N 01°18' E 103°43'0 0.0
2016-Jan-31 00:33N 01°18' E 103°43'0 0.0
2016-Jan-30 23:33N 01°18' E 103°43'0 0.0
2016-Jan-30 22:30N 01°18' E 103°43'0 0.0
2016-Jan-30 21:24N 01°18' E 103°43'0 0.0
2016-Jan-30 20:33N 01°18' E 103°43'0 0.0
2016-Jan-30 19:30N 01°18' E 103°43'0 0.0
2016-Jan-30 18:30N 01°18' E 103°43'0 0.0
2016-Jan-30 17:33N 01°18' E 103°43'0 0.0
2016-Jan-30 16:33N 01°18' E 103°43'0 0.0
2016-Jan-30 15:30N 01°18' E 103°43'0 0.0
2016-Jan-30 14:33N 01°18' E 103°43'0 0.0
2016-Jan-30 13:30N 01°18' E 103°43'0 0.0
2016-Jan-30 12:33N 01°18' E 103°43'0 0.0
2016-Jan-30 11:33N 01°18' E 103°43'0 0.0
2016-Jan-30 09:33N 01°18' E 103°43'0 0.0
2016-Jan-30 08:30N 01°18' E 103°43'0 0.0
2016-Jan-30 07:27N 01°18' E 103°43'0 0.0
2016-Jan-30 06:30N 01°18' E 103°43'0 0.0
2016-Jan-30 05:27N 01°18' E 103°43'0 0.0
2016-Jan-30 04:32N 01°18' E 103°43'0 0.0
2016-Jan-30 03:32N 01°18' E 103°43'0 0.0
2016-Jan-30 02:29N 01°18' E 103°43'0 0.0
2016-Jan-30 01:32N 01°18' E 103°43'0 0.0
2016-Jan-30 00:29N 01°18' E 103°43'0 0.0
2016-Jan-29 23:26N 01°18' E 103°43'0 0.0
2016-Jan-29 22:29N 01°18' E 103°43'0 0.0
2016-Jan-29 21:32N 01°18' E 103°43'  
Track history (hours):
 
Tides and Currents Weather Stations Pressure Air Temp Water Temp Dewpoint Dewpoint Depression Visibility Wind Speed Wind Dir Waves Ship Positions

Triple Star

Last reported at 2016-Feb-08 21:28 UTC. Time now 2016-Feb-09 07:44 UTC.
Position S 21°01' E 114°40'.

Length 190 m; draft 6.9 m.

Type: Cargo ship. MMSI: 371523000.

Date/timePositionNaut miles runAvg speedWind from/ knotsBaromVisibWave heightAir tempDewpointWater temp
2016-Feb-08 21:28S 21°01' E 114°40'2412.6
2016-Feb-08 19:32S 20°43' E 114°23'4611.2
2016-Feb-08 15:27S 19°58' E 114°19'1112.0
2016-Feb-08 14:34S 19°47' E 114°20'1211.9
2016-Feb-08 13:33S 19°35' E 114°22'5911.6
2016-Feb-08 08:29S 18°37' E 114°29'1312.1
2016-Feb-08 07:25S 18°24' E 114°30'8412.1
2016-Feb-08 00:31S 17°01' E 114°41'2512.3
2016-Feb-07 22:28S 16°36' E 114°44'1212.2
2016-Feb-07 21:27S 16°24' E 114°46'2812.3
2016-Feb-07 19:11S 15°56' E 114°49'4412.2
2016-Feb-07 15:33S 15°12' E 114°54'  
2016-Feb-02 12:33N 01°14' E 104°02'8 7.9
2016-Feb-02 11:34N 01°16' E 103°54'2 1.5
2016-Feb-02 10:31N 01°15' E 103°52'0 0.0
2016-Feb-02 09:31N 01°15' E 103°52'0 0.0
2016-Feb-02 08:31N 01°15' E 103°52'0 0.0
2016-Feb-02 07:31N 01°15' E 103°52'0 0.1
2016-Feb-02 06:31N 01°15' E 103°53'0 0.0
2016-Feb-02 05:29N 01°15' E 103°53'0 0.0
2016-Feb-02 04:31N 01°15' E 103°53'0 0.1
2016-Feb-02 03:31N 01°16' E 103°53'0 0.1
2016-Feb-02 02:31N 01°15' E 103°53'0 0.0
2016-Feb-02 01:31N 01°15' E 103°53'0 0.1
2016-Feb-02 00:31N 01°15' E 103°53'0 0.1
2016-Feb-01 23:30N 01°15' E 103°52'0 0.0
2016-Feb-01 22:30N 01°15' E 103°52'0 0.1
2016-Feb-01 21:33N 01°15' E 103°53'0 0.0
2016-Feb-01 20:30N 01°15' E 103°53'0 0.0
2016-Feb-01 19:33N 01°15' E 103°53'0 0.0
2016-Feb-01 18:33N 01°15' E 103°53'0 0.0
2016-Feb-01 17:31N 01°15' E 103°53'0 0.0
2016-Feb-01 16:33N 01°15' E 103°53'0 0.0
2016-Feb-01 15:30N 01°15' E 103°53'0 0.0
2016-Feb-01 14:30N 01°15' E 103°53'0 0.0
2016-Feb-01 13:33N 01°15' E 103°53'0 0.0
2016-Feb-01 12:30N 01°15' E 103°53'0 0.0
2016-Feb-01 11:30N 01°15' E 103°53'0 0.0
2016-Feb-01 10:30N 01°15' E 103°53'0 0.1
2016-Feb-01 09:30N 01°15' E 103°52'0 0.1
2016-Feb-01 08:33N 01°15' E 103°53'0 0.1
2016-Feb-01 07:30N 01°15' E 103°52'0 0.0
2016-Feb-01 06:27N 01°15' E 103°52'0 0.1
2016-Feb-01 05:33N 01°15' E 103°53'0 0.0
2016-Feb-01 04:24N 01°15' E 103°53'0 0.0
2016-Feb-01 03:30N 01°15' E 103°53'0 0.0
2016-Feb-01 02:22N 01°15' E 103°53'0 0.0
2016-Feb-01 01:28N 01°15' E 103°53'0 0.0
2016-Feb-01 00:33N 01°15' E 103°53'0 0.0
2016-Jan-31 23:33N 01°15' E 103°53'0 0.0
2016-Jan-31 22:27N 01°15' E 103°53'0 0.0
2016-Jan-31 21:33N 01°15' E 103°53'0 0.0
2016-Jan-31 20:30N 01°15' E 103°53'0 0.0
2016-Jan-31 19:30N 01°15' E 103°53'0 0.0
2016-Jan-31 18:30N 01°15' E 103°53'0 0.0
2016-Jan-31 17:27N 01°15' E 103°53'0 0.0
2016-Jan-31 16:28N 01°15' E 103°53'0 0.0
2016-Jan-31 15:32N 01°15' E 103°53'0 0.1
2016-Jan-31 14:32N 01°16' E 103°52'0 0.1
2016-Jan-31 13:32N 01°16' E 103°53'0 0.0
2016-Jan-31 12:32N 01°15' E 103°53'0 0.2
2016-Jan-31 11:29N 01°16' E 103°53'0 0.0
2016-Jan-31 10:29N 01°16' E 103°53'0 0.1
2016-Jan-31 09:33N 01°16' E 103°53'0 0.1
2016-Jan-31 08:32N 01°16' E 103°53'0 0.2
2016-Jan-31 07:32N 01°16' E 103°53'0 0.2
2016-Jan-31 06:29N 01°16' E 103°52'2 2.6
2016-Jan-31 05:33N 01°13' E 103°53'9 8.7
2016-Jan-31 04:33N 01°17' E 103°45'2 2.1
2016-Jan-31 03:30N 01°18' E 103°43'0 0.0
2016-Jan-31 02:30N 01°18' E 103°43'0 0.0
2016-Jan-31 01:33N 01°18' E 103°43'0 0.0
2016-Jan-31 00:33N 01°18' E 103°43'0 0.0
2016-Jan-30 23:33N 01°18' E 103°43'0 0.0
2016-Jan-30 22:30N 01°18' E 103°43'0 0.0
2016-Jan-30 21:24N 01°18' E 103°43'0 0.0
2016-Jan-30 20:33N 01°18' E 103°43'0 0.0
2016-Jan-30 19:30N 01°18' E 103°43'0 0.0
2016-Jan-30 18:30N 01°18' E 103°43'0 0.0
2016-Jan-30 17:33N 01°18' E 103°43'0 0.0
2016-Jan-30 16:33N 01°18' E 103°43'0 0.0
2016-Jan-30 15:30N 01°18' E 103°43'0 0.0
2016-Jan-30 14:33N 01°18' E 103°43'0 0.0
2016-Jan-30 13:30N 01°18' E 103°43'0 0.0
2016-Jan-30 12:33N 01°18' E 103°43'0 0.0
2016-Jan-30 11:33N 01°18' E 103°43'0 0.0
2016-Jan-30 09:33N 01°18' E 103°43'0 0.0
2016-Jan-30 08:30N 01°18' E 103°43'0 0.0
2016-Jan-30 07:27N 01°18' E 103°43'0 0.0
2016-Jan-30 06:30N 01°18' E 103°43'0 0.0
2016-Jan-30 05:27N 01°18' E 103°43'0 0.0
2016-Jan-30 04:32N 01°18' E 103°43'0 0.0
2016-Jan-30 03:32N 01°18' E 103°43'0 0.0
2016-Jan-30 02:29N 01°18' E 103°43'0 0.0
2016-Jan-30 01:32N 01°18' E 103°43'0 0.0
2016-Jan-30 00:29N 01°18' E 103°43'0 0.0
2016-Jan-29 23:26N 01°18' E 103°43'0 0.0
2016-Jan-29 22:29N 01°18' E 103°43'0 0.0
2016-Jan-29 21:32N 01°18' E 103°43'  

Dump ship's entire track history